createdAt,value
2022-09-04T00:01:33.208Z,13.40
2022-09-04T00:04:49.904Z,13.30
2022-09-04T00:07:40.804Z,13.30
2022-09-04T00:10:19.287Z,13.30
2022-09-04T00:13:04.459Z,13.20
2022-09-04T00:15:38.204Z,13.10
2022-09-04T00:18:33.255Z,13.00
2022-09-04T00:21:28.495Z,13.00
2022-09-04T00:24:01.508Z,13.00
2022-09-04T00:27:01.263Z,12.90
2022-09-04T00:29:45.444Z,12.90
2022-09-04T00:32:38.591Z,12.90
2022-09-04T00:35:18.760Z,12.90
2022-09-04T00:38:04.224Z,12.80
2022-09-04T00:40:50.328Z,12.80
2022-09-04T00:43:55.516Z,12.70
2022-09-04T00:47:03.055Z,12.70
2022-09-04T00:50:14.632Z,12.70
2022-09-04T00:52:58.349Z,12.60
2022-09-04T00:56:08.212Z,12.60
2022-09-04T00:59:12.221Z,12.70
2022-09-04T01:01:39.710Z,12.70
2022-09-04T01:04:29.768Z,12.60
2022-09-04T01:08:02.332Z,12.60
2022-09-04T01:10:45.980Z,12.60
2022-09-04T01:13:39.646Z,12.60
2022-09-04T01:16:23.168Z,12.60
2022-09-04T01:19:14.340Z,12.60
2022-09-04T01:21:59.892Z,12.60
2022-09-04T01:25:09.100Z,12.60
2022-09-04T01:28:07.766Z,12.60
2022-09-04T01:30:57.250Z,12.60
2022-09-04T01:33:33.293Z,12.60
2022-09-04T01:36:20.011Z,12.60
2022-09-04T01:38:55.732Z,12.60
2022-09-04T01:41:38.528Z,12.60
2022-09-04T01:44:11.044Z,12.60
2022-09-04T01:47:03.973Z,12.60
2022-09-04T01:49:45.930Z,12.70
2022-09-04T01:53:06.321Z,12.60
2022-09-04T01:55:47.631Z,12.60
2022-09-04T01:58:47.133Z,12.60
2022-09-04T02:01:49.710Z,12.60
2022-09-04T02:04:42.217Z,12.50
2022-09-04T02:07:31.185Z,12.50
2022-09-04T02:10:11.161Z,12.50
2022-09-04T02:13:07.272Z,12.50
2022-09-04T02:16:07.098Z,12.50
2022-09-04T02:19:00.549Z,12.60
2022-09-04T02:21:37.376Z,12.60
2022-09-04T02:24:31.004Z,12.50
2022-09-04T02:27:12.900Z,12.50
2022-09-04T02:30:10.409Z,12.50
2022-09-04T02:32:53.636Z,12.50
2022-09-04T02:35:52.201Z,12.40
2022-09-04T02:38:37.605Z,12.40
2022-09-04T02:41:50.699Z,12.40
2022-09-04T02:44:44.920Z,12.40
2022-09-04T02:47:52.533Z,12.30
2022-09-04T02:50:46.076Z,12.40
2022-09-04T02:54:02.977Z,12.40
2022-09-04T02:56:59.734Z,12.30
2022-09-04T02:59:43.102Z,12.20
2022-09-04T03:02:32.869Z,12.20
2022-09-04T03:05:12.370Z,12.30
2022-09-04T03:08:03.106Z,12.30
2022-09-04T03:10:42.849Z,12.30
2022-09-04T03:13:47.051Z,12.40
2022-09-04T03:16:37.650Z,12.40
2022-09-04T03:19:22.061Z,12.40
2022-09-04T03:22:10.306Z,12.50
2022-09-04T03:24:58.555Z,12.50
2022-09-04T03:27:26.654Z,12.40
2022-09-04T03:30:08.681Z,12.40
2022-09-04T03:33:14.427Z,12.40
2022-09-04T03:35:55.325Z,12.30
2022-09-04T03:38:47.091Z,12.40
2022-09-04T03:41:54.053Z,12.30
2022-09-04T03:44:57.724Z,12.40
2022-09-04T03:47:46.329Z,12.30
2022-09-04T03:50:51.060Z,12.30
2022-09-04T03:53:48.269Z,12.30
2022-09-04T03:56:51.454Z,12.20
2022-09-04T04:00:03.905Z,12.20
2022-09-04T04:02:49.415Z,12.20
2022-09-04T04:05:26.224Z,12.20
2022-09-04T04:08:07.156Z,12.10
2022-09-04T04:11:05.241Z,12.10
2022-09-04T04:14:05.830Z,12.10
2022-09-04T04:16:55.967Z,12.10
2022-09-04T04:19:44.632Z,12.00
2022-09-04T04:22:56.631Z,12.00
2022-09-04T04:26:01.045Z,12.00
2022-09-04T04:28:59.118Z,11.90
2022-09-04T04:31:44.671Z,11.90
2022-09-04T04:34:31.784Z,11.90
2022-09-04T04:37:13.406Z,11.90
2022-09-04T04:40:03.118Z,11.90
2022-09-04T04:43:34.247Z,11.80
2022-09-04T04:46:15.179Z,11.80
2022-09-04T04:49:26.108Z,11.80
2022-09-04T04:52:18.525Z,11.70
2022-09-04T04:55:21.324Z,11.80
2022-09-04T04:58:44.403Z,11.80
2022-09-04T05:01:48.399Z,11.90
2022-09-04T05:04:41.344Z,11.90
2022-09-04T05:07:42.683Z,11.90
2022-09-04T05:10:44.299Z,12.00
2022-09-04T05:13:37.703Z,12.20
2022-09-04T05:16:36.164Z,12.30
2022-09-04T05:19:30.463Z,12.30
2022-09-04T05:22:34.187Z,12.40
2022-09-04T05:25:11.493Z,12.50
2022-09-04T05:27:56.724Z,12.60
2022-09-04T05:30:52.448Z,12.60
2022-09-04T05:33:55.118Z,12.70
2022-09-04T05:37:08.858Z,12.80
2022-09-04T05:40:04.214Z,13.00
2022-09-04T05:42:58.779Z,13.10
2022-09-04T05:45:31.210Z,13.20
2022-09-04T05:48:22.866Z,13.30
2022-09-04T05:51:45.669Z,13.50
2022-09-04T05:55:02.298Z,13.60
2022-09-04T05:57:50.889Z,13.60
2022-09-04T06:00:19.657Z,13.80
2022-09-04T06:03:37.930Z,13.90
2022-09-04T06:06:50.619Z,14.10
2022-09-04T06:09:46.742Z,14.20
2022-09-04T06:13:00.030Z,14.30
2022-09-04T06:15:59.538Z,14.40
2022-09-04T06:18:40.166Z,14.60
2022-09-04T06:21:42.978Z,14.70
2022-09-04T06:24:28.626Z,14.90
2022-09-04T06:27:44.195Z,15.00
2022-09-04T06:30:13.814Z,15.20
2022-09-04T06:33:23.402Z,15.30
2022-09-04T06:36:25.072Z,15.40
2022-09-04T06:39:05.491Z,15.60
2022-09-04T06:41:48.748Z,15.70
2022-09-04T06:44:59.776Z,15.90
2022-09-04T06:48:11.490Z,16.00
2022-09-04T06:51:15.809Z,16.10
2022-09-04T06:54:08.649Z,16.30
2022-09-04T06:56:55.752Z,16.50
2022-09-04T07:00:04.527Z,16.70
2022-09-04T07:03:08.456Z,16.80
2022-09-04T07:06:11.753Z,16.80
2022-09-04T07:09:19.442Z,16.90
2022-09-04T07:12:20.160Z,17.00
2022-09-04T07:15:38.031Z,17.10
2022-09-04T07:18:20.666Z,17.20
2022-09-04T07:21:28.652Z,17.30
2022-09-04T07:24:08.829Z,17.50
2022-09-04T07:27:12.165Z,17.50
2022-09-04T07:29:57.480Z,17.60
2022-09-04T07:32:36.473Z,17.60
2022-09-04T07:35:50.870Z,17.70
2022-09-04T07:39:01.592Z,17.80
2022-09-04T07:41:55.945Z,17.80
2022-09-04T07:45:03.265Z,17.80
2022-09-04T07:48:17.771Z,18.00
2022-09-04T07:51:10.128Z,18.20
2022-09-04T07:54:38.107Z,18.20
2022-09-04T07:57:46.723Z,18.30
2022-09-04T08:00:22.516Z,18.40
2022-09-04T08:03:24.780Z,18.40
2022-09-04T08:06:25.495Z,18.50
2022-09-04T08:09:11.859Z,18.50
2022-09-04T08:14:56.863Z,19.20
2022-09-04T08:18:15.195Z,19.70
2022-09-04T08:20:52.539Z,21.50
2022-09-04T08:23:42.440Z,23.00
2022-09-04T08:26:44.671Z,24.10
2022-09-04T08:29:45.359Z,24.50
2022-09-04T08:32:55.626Z,25.00
2022-09-04T08:35:53.506Z,25.60
2022-09-04T08:38:34.882Z,25.70
2022-09-04T08:41:48.502Z,26.50
2022-09-04T08:45:12.234Z,27.80
2022-09-04T08:48:21.766Z,28.50
2022-09-04T08:51:35.282Z,30.10
2022-09-04T08:54:16.782Z,30.60
2022-09-04T08:57:28.575Z,31.60
2022-09-04T09:00:42.829Z,32.40
2022-09-04T09:06:19.609Z,33.50
2022-09-04T09:09:38.588Z,34.40
2022-09-04T09:12:44.088Z,34.10
2022-09-04T09:15:36.243Z,33.80
2022-09-04T09:18:12.225Z,33.70
2022-09-04T09:21:06.921Z,33.90
2022-09-04T09:24:09.045Z,34.10
2022-09-04T09:27:27.557Z,35.00
2022-09-04T09:30:15.416Z,34.90
2022-09-04T09:33:39.626Z,34.60
2022-09-04T09:36:44.410Z,32.90
2022-09-04T09:39:31.551Z,33.00
2022-09-04T09:42:37.310Z,33.40
2022-09-04T09:45:24.726Z,33.50
2022-09-04T09:48:23.678Z,31.20
2022-09-04T09:51:13.842Z,30.30
2022-09-04T09:54:29.313Z,28.80
2022-09-04T09:57:36.698Z,27.90
2022-09-04T10:00:46.305Z,27.10
2022-09-04T10:04:22.061Z,26.10
2022-09-04T10:07:19.739Z,25.00
2022-09-04T10:10:24.688Z,24.40
2022-09-04T10:13:29.630Z,24.20
2022-09-04T10:16:36.421Z,24.20
2022-09-04T10:19:46.458Z,24.10
2022-09-04T10:22:34.938Z,24.10
2022-09-04T10:25:29.034Z,24.20
2022-09-04T10:28:49.579Z,24.10
2022-09-04T10:31:44.774Z,24.20
2022-09-04T10:35:03.110Z,24.10
2022-09-04T10:38:26.976Z,23.80
2022-09-04T10:41:37.173Z,23.70
2022-09-04T10:44:43.569Z,23.70
2022-09-04T10:47:33.040Z,23.70
2022-09-04T10:50:20.301Z,23.70
2022-09-04T10:53:14.938Z,23.70
2022-09-04T10:56:12.872Z,23.70
2022-09-04T10:59:16.277Z,23.80
2022-09-04T11:02:25.387Z,23.70
2022-09-04T11:05:23.521Z,23.90
2022-09-04T11:08:09.189Z,24.00
2022-09-04T11:10:56.154Z,23.90
2022-09-04T11:13:56.178Z,23.50
2022-09-04T11:16:59.800Z,23.20
2022-09-04T11:20:18.191Z,23.00
2022-09-04T11:23:15.345Z,22.90
2022-09-04T11:26:22.797Z,22.80
2022-09-04T11:29:18.238Z,22.80
2022-09-04T11:32:12.014Z,22.90
2022-09-04T11:35:02.223Z,22.90
2022-09-04T11:38:19.740Z,22.90
2022-09-04T11:41:28.898Z,23.00
2022-09-04T11:44:27.122Z,23.10
2022-09-04T11:47:34.856Z,23.10
2022-09-04T11:50:35.046Z,23.30
2022-09-04T11:53:35.974Z,23.30
2022-09-04T11:56:30.634Z,23.50
2022-09-04T11:59:42.098Z,23.60
2022-09-04T12:03:02.061Z,23.80
2022-09-04T12:05:45.885Z,23.90
2022-09-04T12:09:02.728Z,24.00
2022-09-04T12:12:11.465Z,24.20
2022-09-04T12:15:11.526Z,24.20
2022-09-04T12:18:18.669Z,24.20
2022-09-04T12:21:07.533Z,24.20
2022-09-04T12:24:13.065Z,24.20
2022-09-04T12:27:06.213Z,24.20
2022-09-04T12:30:13.669Z,24.40
2022-09-04T12:33:30.709Z,24.40
2022-09-04T12:36:26.348Z,24.50
2022-09-04T12:39:24.201Z,24.40
2022-09-04T12:42:25.607Z,24.30
2022-09-04T12:45:13.307Z,24.30
2022-09-04T12:47:48.979Z,24.30
2022-09-04T12:50:48.039Z,24.40
2022-09-04T12:53:31.990Z,24.40
2022-09-04T12:56:12.095Z,24.50
2022-09-04T12:59:19.343Z,24.60
2022-09-04T13:02:10.189Z,24.70
2022-09-04T13:04:49.409Z,24.90
2022-09-04T13:07:58.258Z,25.10
2022-09-04T13:10:49.053Z,24.90
2022-09-04T13:13:29.518Z,24.90
2022-09-04T13:16:41.002Z,24.90
2022-09-04T13:19:44.845Z,24.70
2022-09-04T13:22:58.889Z,24.50
2022-09-04T13:25:35.560Z,24.30
2022-09-04T13:28:37.091Z,24.20
2022-09-04T13:31:18.970Z,24.20
2022-09-04T13:34:26.439Z,24.40
2022-09-04T13:37:23.192Z,24.50
2022-09-04T13:40:16.637Z,24.50
2022-09-04T13:43:41.044Z,24.50
2022-09-04T13:46:15.810Z,24.50
2022-09-04T13:48:44.878Z,24.70
2022-09-04T13:51:23.040Z,24.60
2022-09-04T13:54:31.308Z,24.50
2022-09-04T13:57:21.755Z,24.60
2022-09-04T13:59:50.194Z,24.90
2022-09-04T14:02:24.444Z,25.20
2022-09-04T14:05:14.887Z,25.40
2022-09-04T14:07:49.126Z,25.40
2022-09-04T14:10:35.931Z,25.40
2022-09-04T14:13:37.997Z,25.70
2022-09-04T14:16:09.083Z,25.70
2022-09-04T14:19:15.632Z,25.80
2022-09-04T14:22:33.503Z,25.50
2022-09-04T14:25:15.928Z,25.80
2022-09-04T14:27:51.083Z,26.10
2022-09-04T14:30:23.815Z,26.30
2022-09-04T14:33:07.801Z,26.30
2022-09-04T14:36:00.108Z,26.20
2022-09-04T14:38:44.757Z,26.30
2022-09-04T14:41:35.982Z,26.30
2022-09-04T14:44:39.028Z,26.30
2022-09-04T14:47:43.964Z,26.30
2022-09-04T14:50:15.059Z,26.30
2022-09-04T14:52:56.695Z,26.30
2022-09-04T14:55:31.916Z,26.20
2022-09-04T14:58:19.454Z,26.20
2022-09-04T15:01:04.040Z,26.10
2022-09-04T15:04:10.152Z,26.10
2022-09-04T15:07:10.435Z,26.00
2022-09-04T15:09:44.311Z,26.00
2022-09-04T15:12:25.342Z,25.90
2022-09-04T15:15:31.519Z,25.80
2022-09-04T15:18:15.730Z,25.80
2022-09-04T15:21:09.482Z,25.80
2022-09-04T15:23:52.998Z,25.80
2022-09-04T15:26:39.488Z,25.80
2022-09-04T15:29:53.469Z,25.70
2022-09-04T15:32:39.690Z,25.50
2022-09-04T15:35:33.667Z,25.40
2022-09-04T15:38:20.868Z,25.40
2022-09-04T15:41:16.708Z,25.30
2022-09-04T15:43:52.709Z,25.20
2022-09-04T15:46:42.134Z,25.00
2022-09-04T15:49:59.253Z,24.90
2022-09-04T15:52:40.206Z,24.80
2022-09-04T15:55:26.388Z,24.80
2022-09-04T15:58:08.442Z,24.80
2022-09-04T16:00:52.012Z,24.80
2022-09-04T16:03:36.494Z,24.70
2022-09-04T16:06:11.073Z,24.70
2022-09-04T16:08:48.122Z,24.60
2022-09-04T16:11:28.429Z,24.60
2022-09-04T16:14:00.353Z,24.70
2022-09-04T16:16:53.001Z,24.80
2022-09-04T16:19:43.452Z,24.80
2022-09-04T16:22:58.283Z,24.80
2022-09-04T16:25:38.834Z,24.90
2022-09-04T16:28:19.960Z,24.90
2022-09-04T16:30:59.405Z,24.80
2022-09-04T16:33:44.745Z,24.80
2022-09-04T16:36:36.063Z,24.80
2022-09-04T16:39:13.212Z,24.70
2022-09-04T16:42:17.767Z,24.70
2022-09-04T16:44:57.314Z,24.80
2022-09-04T16:47:59.022Z,24.70
2022-09-04T16:50:42.019Z,24.60
2022-09-04T16:53:28.537Z,24.50
2022-09-04T16:56:16.149Z,24.50
2022-09-04T16:58:56.652Z,24.40
2022-09-04T17:01:42.286Z,24.40
2022-09-04T17:04:39.734Z,24.30
2022-09-04T17:07:07.645Z,24.30
2022-09-04T17:09:59.993Z,24.20
2022-09-04T17:12:43.082Z,24.20
2022-09-04T17:15:36.995Z,24.10
2022-09-04T17:18:09.467Z,24.00
2022-09-04T17:25:05.750Z,24.00
2022-09-04T17:28:57.653Z,23.90
2022-09-04T17:29:19.625Z,23.70
2022-09-04T17:29:59.271Z,23.60
2022-09-04T17:37:17.555Z,23.40
2022-09-04T17:40:38.039Z,23.20
2022-09-04T17:40:49.399Z,23.00
2022-09-04T17:42:03.243Z,22.80
2022-09-04T17:44:48.553Z,22.70
2022-09-04T17:47:34.310Z,22.50
2022-09-04T17:50:09.538Z,22.40
2022-09-04T17:53:33.629Z,22.20
2022-09-04T17:56:44.703Z,22.10
2022-09-04T17:59:45.571Z,21.80
2022-09-04T18:02:30.474Z,21.70
2022-09-04T18:05:20.107Z,21.50
2022-09-04T18:08:07.753Z,21.30
2022-09-04T18:11:03.777Z,21.20
2022-09-04T18:14:01.105Z,20.90
2022-09-04T18:16:38.456Z,20.80
2022-09-04T18:19:45.027Z,20.70
2022-09-04T18:22:44.473Z,20.60
2022-09-04T18:25:21.805Z,20.40
2022-09-04T18:28:06.097Z,20.30
2022-09-04T18:37:08.096Z,20.10
2022-09-04T18:37:27.022Z,20.00
2022-09-04T18:37:45.192Z,19.90
2022-09-04T18:46:05.144Z,19.80
2022-09-04T18:47:26.686Z,19.70
2022-09-04T18:50:36.449Z,19.50
2022-09-04T18:50:44.947Z,19.60
2022-09-04T18:52:22.141Z,19.30
2022-09-04T18:54:55.441Z,19.30
2022-09-04T18:57:45.611Z,19.20
2022-09-04T19:00:34.027Z,19.10
2022-09-04T19:03:21.550Z,19.10
2022-09-04T19:05:54.687Z,19.00
2022-09-04T19:08:30.550Z,18.90
2022-09-04T19:11:21.651Z,18.90
2022-09-04T19:14:10.888Z,18.90
2022-09-04T19:16:53.781Z,18.80
2022-09-04T19:19:40.857Z,18.70
2022-09-04T19:22:23.973Z,18.60
2022-09-04T19:25:08.100Z,18.60
2022-09-04T19:28:01.185Z,18.60
2022-09-04T19:30:50.535Z,18.50
2022-09-04T19:33:44.665Z,18.50
2022-09-04T19:36:21.996Z,18.40
2022-09-04T19:45:57.651Z,18.40
2022-09-04T19:46:01.269Z,18.30
2022-09-04T19:46:16.322Z,18.20
2022-09-04T19:49:06.414Z,18.10
2022-09-04T19:53:34.184Z,18.00
2022-09-04T19:54:57.871Z,17.90
2022-09-04T19:57:52.124Z,17.90
2022-09-04T20:00:44.068Z,17.90
2022-09-04T20:03:32.845Z,17.90
2022-09-04T20:06:20.103Z,17.80
2022-09-04T20:09:26.094Z,17.80
2022-09-04T20:12:03.844Z,17.80
2022-09-04T20:14:46.420Z,17.80
2022-09-04T20:17:40.137Z,17.70
2022-09-04T20:20:21.147Z,17.70
2022-09-04T20:23:02.366Z,17.60
2022-09-04T20:26:03.892Z,17.50
2022-09-04T20:29:19.024Z,17.40
2022-09-04T20:31:59.378Z,17.40
2022-09-04T20:34:34.614Z,17.30
2022-09-04T20:37:25.966Z,17.30
2022-09-04T20:40:28.620Z,17.30
2022-09-04T20:43:26.767Z,17.20
2022-09-04T20:50:40.199Z,17.20
2022-09-04T20:52:59.682Z,17.20
2022-09-04T20:53:07.151Z,17.10
2022-09-04T20:56:18.875Z,17.10
2022-09-04T21:03:05.924Z,17.10
2022-09-04T21:03:35.302Z,17.00
2022-09-04T21:06:28.454Z,16.90
2022-09-04T21:09:26.831Z,16.90
2022-09-04T21:12:52.583Z,16.90
2022-09-04T21:15:48.308Z,16.90
2022-09-04T21:19:28.616Z,16.80
2022-09-04T21:22:32.304Z,16.80
2022-09-04T21:25:25.251Z,16.80
2022-09-04T21:28:38.703Z,16.80
2022-09-04T21:31:36.354Z,16.70
2022-09-04T21:34:27.363Z,16.60
2022-09-04T21:37:05.507Z,16.60
2022-09-04T21:40:24.524Z,16.60
2022-09-04T21:43:45.906Z,16.60
2022-09-04T21:46:52.624Z,16.60
2022-09-04T21:49:56.977Z,16.50
2022-09-04T21:52:56.245Z,16.50
2022-09-04T21:59:04.646Z,16.40
2022-09-04T22:02:39.553Z,16.40
2022-09-04T22:02:51.314Z,16.40
2022-09-04T22:05:56.383Z,16.30
2022-09-04T22:13:26.115Z,16.20
2022-09-04T22:13:33.774Z,16.10
2022-09-04T22:14:54.504Z,16.10
2022-09-04T22:17:48.920Z,16.00
2022-09-04T22:20:52.983Z,15.90
2022-09-04T22:23:46.865Z,15.80
2022-09-04T22:26:38.142Z,15.70
2022-09-04T22:29:51.549Z,15.60
2022-09-04T22:32:58.968Z,15.60
2022-09-04T22:36:13.472Z,15.60
2022-09-04T22:39:35.711Z,15.60
2022-09-04T22:42:29.953Z,15.60
2022-09-04T22:45:10.022Z,15.50
2022-09-04T22:48:27.907Z,15.50
2022-09-04T22:51:17.793Z,15.50
2022-09-04T22:54:29.048Z,15.50
2022-09-04T22:57:06.428Z,15.40
2022-09-04T23:00:12.056Z,15.40
2022-09-04T23:03:10.076Z,15.40
2022-09-04T23:07:54.817Z,15.50
2022-09-04T23:13:58.479Z,15.40
2022-09-04T23:14:02.834Z,15.50
2022-09-04T23:16:28.210Z,15.30
2022-09-04T23:20:50.200Z,15.30
2022-09-04T23:26:34.454Z,15.30
2022-09-04T23:26:46.816Z,15.30
2022-09-04T23:29:40.969Z,15.30
2022-09-04T23:32:51.525Z,15.30
2022-09-04T23:35:41.562Z,15.30
2022-09-04T23:38:48.343Z,15.30
2022-09-04T23:41:44.689Z,15.20
2022-09-04T23:44:41.593Z,15.20
2022-09-04T23:47:47.365Z,15.10
2022-09-04T23:50:46.731Z,15.10
2022-09-04T23:53:36.110Z,15.10
2022-09-04T23:56:24.005Z,15.10
2022-09-04T23:59:35.648Z,15.20
